Historique des mesures à Cassis (13260), France
Quotidien Résumé Juin 20, 2021 Unités:  US    Métrique   Métrique/US
Quotidien Hebdomadaire Mensuel Annuel
  Maximum: Minimum: Moyenne:
Température: 72.3 °F 64 °F 67.1 °F
Point de rosée: 59.7 °F 56.5 °F 57.9 °F
Humidité: 81% 62% 73%
Vitesse du vent: 5.8mph 0mph 0.6mph
Rafales: 9.8mph - -
Vent- - SE
Pression: 30.3 in 30 in -
Précipitations: 0 in    
Historical Graphs
 
 
Mesures pour : Juin 20, 2021
Heure Temperature Point de rosée Pression Vent Vitesse du vent Rafales Humidité Pluie (par heure)
00:11 64.2 °F 56.5 °F 30.3 in Calm   2 mph 76% 0 in
01:11 64.2 °F 56.5 °F 30.3 in ESE 2.5 mph 2.5 mph 76% 0 in
02:11 64.2 °F 57.2 °F 30.2 in Calm   2.2 mph 78% 0 in
03:11 64.2 °F 57.6 °F 30.2 in Calm     79% 0 in
04:11 64.2 °F 57.9 °F 30.2 in Calm   1.1 mph 80% 0 in
05:11 64 °F 58.1 °F 30.2 in Calm     81% 0 in
06:11 64 °F 58.1 °F 30.2 in Calm   2.7 mph 81% 0 in
07:11 64.2 °F 57.9 °F 30.2 in Calm   2.2 mph 80% 0 in
08:11 64.2 °F 57.9 °F 30.2 in Calm   3.1 mph 80% 0 in
09:11 65.7 °F 58.3 °F 30.2 in Calm   0.9 mph 77% 0 in
10:11 68.2 °F 59.2 °F 30.2 in ENE 2.7 mph 5.2 mph 73% 0 in
11:11 69.6 °F 59.4 °F 30.2 in SSW 5.8 mph 5.8 mph 70% 0 in
12:11 71.2 °F 59.7 °F 30.2 in Calm   4.9 mph 67% 0 in
13:11 72.3 °F 59.4 °F 30.2 in SE 1.6 mph 6.3 mph 64% 0 in
14:11 72.1 °F 58.5 °F 30.2 in Calm   4 mph 62% 0 in
15:11 71.8 °F 58.5 °F 30.1 in Calm   6 mph 63% 0 in
16:11 70.5 °F 58.1 °F 30.1 in Calm   4.9 mph 65% 0 in
17:11 69.4 °F 57.9 °F 30.1 in Calm   8.9 mph 67% 0 in
18:11 68.2 °F 57.7 °F 30.1 in Calm   4.7 mph 69% 0 in
19:11 67.1 °F 57 °F 30.1 in Calm   9.8 mph 70% 0 in
20:11 66.7 °F 57.4 °F 30.1 in SE 1.8 mph 4.5 mph 72% 0 in
21:11 66.7 °F 57.7 °F 30.1 in Calm   3.1 mph 73% 0 in
22:11 66.4 °F 57.7 °F 30.1 in Calm   3.4 mph 74% 0 in
23:11 65.3 °F 57.2 °F 30 in Calm   4 mph 75% 0 in
Observations météo à CASSIS
WU-History script by Weather Underground - 2 mb